Garwood, Texas
Current Conditions -  °F | °C
As of 1:55 PM on Sunday 23 Nov 2014 (Local Time) from KELA Reporting Station
Clear Clear  
Wind Chill: 79°   Ceiling: Unl
Heat Index: 79°   Visibility: 10mi
Dew Point: 50°   Wind: 13mph
Humidity: 36%   Direction: 240°WSW
Pressure: 29.55"   Gusts: 25mph
Location:  29.45°N, 96.4°W
Report Text: KELA 231955Z AUTO 24011G22KT 10SM CLR 26/10 A2955 RMK AO2 T02600099
Loading
Personal Weather Stations






























Interactive Weather Map New forecast layout! Learn more

10-Day Weather Forecast

Advertisements
Track Severe Weather on mobile